Time;durP1;ratioP1;P1;durP2;ratioP2;P2;SDS_P1;SDS_P2;PMS_P1;PMS_P2;Temp;Humidity;BMP_temperature;BMP_pressure;BME280_temperature;BME280_humidity;BME280_pressure;Samples;Min_cycle;Max_cycle;Signal;HPM_P1;HPM_P2
2022/08/12 00:45:07;;;;;;;2.30;2.20;;;;;;;;;;5121239;28;20773;-63
2022/08/12 00:47:37;;;;;;;2.45;2.10;;;;;;;;;;5119619;28;20192;-63
2022/08/12 00:50:06;;;;;;;3.70;2.35;;;;;;;;;;5106227;28;20260;-63
2022/08/12 00:52:34;;;;;;;3.70;2.03;;;;;;;;;;5119424;28;20205;-63
2022/08/12 00:55:04;;;;;;;2.15;2.05;;;;;;;;;;5119157;28;20227;-63
2022/08/12 00:57:34;;;;;;;2.30;2.08;;;;;;;;;;5118996;27;20232;-63
2022/08/12 01:00:07;;;;;;;3.13;2.38;;;;;;;;;;5119639;28;20196;-63
2022/08/12 01:02:35;;;;;;;2.15;2.05;;;;;;;;;;5120853;28;20258;-63
2022/08/12 01:13:21;;;;;;;3.78;2.30;;;;;;;;;;5120720;28;20629;-63
2022/08/12 01:15:51;;;;;;;2.40;2.20;;;;;;;;;;5120829;28;20211;-63
2022/08/12 01:18:19;;;;;;;2.67;2.30;;;;;;;;;;5120838;27;20208;-63
2022/08/12 01:20:59;;;;;;;4.07;2.10;;;;;;;;;;5121271;28;20208;-63
2022/08/12 01:23:46;;;;;;;4.82;2.22;;;;;;;;;;5115825;28;20233;-63
2022/08/12 01:26:18;;;;;;;3.80;2.40;;;;;;;;;;5100121;28;20240;-63
2022/08/12 01:28:47;;;;;;;3.58;2.30;;;;;;;;;;5100200;28;20211;-63
2022/08/12 01:31:19;;;;;;;3.63;2.03;;;;;;;;;;5100236;28;20205;-63
2022/08/12 01:33:52;;;;;;;2.83;2.42;;;;;;;;;;5099970;28;20652;-63
2022/08/12 01:36:22;;;;;;;2.75;2.00;;;;;;;;;;5103560;28;20236;-63
2022/08/12 01:38:51;;;;;;;1.92;1.83;;;;;;;;;;5120073;28;20702;-63
2022/08/12 01:41:21;;;;;;;4.47;2.33;;;;;;;;;;5120323;28;20232;-63
2022/08/12 01:43:50;;;;;;;2.63;2.35;;;;;;;;;;5120344;28;20264;-63
2022/08/12 01:46:25;;;;;;;4.22;2.30;;;;;;;;;;5120070;28;20232;-63
2022/08/12 01:48:59;;;;;;;3.83;2.50;;;;;;;;;;5119791;28;20211;-63
2022/08/12 01:51:39;;;;;;;2.28;2.10;;;;;;;;;;5119947;28;20272;-63
2022/08/12 01:54:28;;;;;;;2.45;2.22;;;;;;;;;;5119935;28;20217;-63
2022/08/12 01:56:59;;;;;;;4.20;2.42;;;;;;;;;;5120084;28;20247;-63
2022/08/12 01:59:49;;;;;;;2.50;2.30;;;;;;;;;;5119900;28;20235;-63
2022/08/12 02:02:18;;;;;;;4.47;2.40;;;;;;;;;;5120009;28;20211;-64
2022/08/12 02:13:34;;;;;;;2.55;2.35;;;;;;;;;;5119756;28;20264;-63
2022/08/12 02:16:23;;;;;;;2.90;2.70;;;;;;;;;;5119694;28;20211;-63
2022/08/12 02:18:57;;;;;;;5.80;3.13;;;;;;;;;;5119334;28;20234;-63
2022/08/12 02:21:31;;;;;;;8.25;2.83;;;;;;;;;;5119305;28;20210;-63
2022/08/12 02:23:59;;;;;;;6.85;3.13;;;;;;;;;;5110122;28;20273;-63
2022/08/12 02:26:30;;;;;;;3.95;2.50;;;;;;;;;;5098607;28;20252;-63
2022/08/12 02:29:00;;;;;;;5.28;3.00;;;;;;;;;;5099097;28;20240;-63
2022/08/12 02:31:29;;;;;;;3.35;2.40;;;;;;;;;;5098909;28;20555;-63
2022/08/12 02:33:58;;;;;;;2.75;2.55;;;;;;;;;;5098795;28;20606;-63
2022/08/12 02:36:26;;;;;;;2.50;2.30;;;;;;;;;;5103100;28;20199;-63
2022/08/12 02:38:58;;;;;;;4.43;2.65;;;;;;;;;;5118931;28;20633;-63
2022/08/12 02:41:26;;;;;;;2.70;2.50;;;;;;;;;;5118916;28;20258;-64
2022/08/12 02:43:55;;;;;;;6.63;2.83;;;;;;;;;;5118807;28;20253;-64
2022/08/12 02:46:28;;;;;;;2.97;2.70;;;;;;;;;;5119265;27;20207;-63
2022/08/12 02:48:59;;;;;;;3.85;2.53;;;;;;;;;;5119175;28;20236;-63
2022/08/12 02:51:29;;;;;;;2.80;2.60;;;;;;;;;;5118829;28;20281;-63
2022/08/12 02:53:58;;;;;;;4.57;2.53;;;;;;;;;;5118696;28;20224;-63
2022/08/12 02:56:32;;;;;;;3.40;2.67;;;;;;;;;;5118959;28;20254;-63
2022/08/12 02:59:00;;;;;;;5.65;3.45;;;;;;;;;;5118622;28;20678;-64
2022/08/12 03:01:32;;;;;;;2.80;2.60;;;;;;;;;;5119033;28;20204;-63
2022/08/12 03:04:03;;;;;;;3.53;3.22;;;;;;;;;;5118473;28;20314;-63
2022/08/12 03:06:33;;;;;;;2.90;2.70;;;;;;;;;;5119236;28;20235;-63
2022/08/12 03:09:02;;;;;;;1.83;1.73;;;;;;;;;;5118304;28;20578;-63
2022/08/12 03:11:36;;;;;;;2.33;1.83;;;;;;;;;;5118608;28;20206;-63
2022/08/12 03:14:12;;;;;;;5.72;2.50;;;;;;;;;;5118566;28;20694;-63
2022/08/12 03:16:43;;;;;;;3.75;2.53;;;;;;;;;;5118277;28;20231;-63
2022/08/12 03:19:12;;;;;;;3.33;2.17;;;;;;;;;;5118755;28;20239;-63
2022/08/12 03:21:41;;;;;;;3.15;2.08;;;;;;;;;;5118481;28;20704;-63
2022/08/12 03:24:30;;;;;;;1.88;1.77;;;;;;;;;;5105513;28;20228;-63
2022/08/12 03:27:02;;;;;;;3.85;2.20;;;;;;;;;;5097770;28;20695;-63
2022/08/12 03:29:31;;;;;;;2.75;1.90;;;;;;;;;;5098235;28;20211;-63
2022/08/12 03:32:18;;;;;;;2.50;2.15;;;;;;;;;;5107456;28;20569;-63
2022/08/12 03:35:06;;;;;;;2.85;2.13;;;;;;;;;;5118400;28;20310;-63
2022/08/12 03:37:35;;;;;;;2.15;1.95;;;;;;;;;;5104779;28;20229;-63
2022/08/12 03:40:03;;;;;;;2.45;1.95;;;;;;;;;;5104549;28;20648;-63
2022/08/12 03:42:34;;;;;;;3.27;2.00;;;;;;;;;;5118189;28;20207;-63
2022/08/12 04:01:56;;;;;;;2.57;2.13;;;;;;;;;;5118011;28;20207;-63
2022/08/12 04:04:27;;;;;;;1.97;1.87;;;;;;;;;;5118051;28;20263;-63
2022/08/12 04:06:56;;;;;;;3.80;2.00;;;;;;;;;;5118136;28;20260;-63
2022/08/12 04:09:25;;;;;;;1.80;1.70;;;;;;;;;;5117965;28;20216;-63
2022/08/12 04:14:39;;;;;;;1.90;1.70;;;;;;;;;;5121884;28;20228;-63
2022/08/12 04:17:08;;;;;;;1.67;1.57;;;;;;;;;;5122018;28;20219;-63
2022/08/12 04:19:38;;;;;;;2.80;2.20;;;;;;;;;;5121834;28;20627;-63
2022/08/12 04:22:06;;;;;;;3.27;1.90;;;;;;;;;;5119277;27;20210;-63
2022/08/12 04:24:34;;;;;;;2.77;2.10;;;;;;;;;;5106862;28;20264;-63
2022/08/12 04:27:04;;;;;;;7.90;2.10;;;;;;;;;;5100105;28;20237;-63
2022/08/12 04:29:33;;;;;;;2.23;2.00;;;;;;;;;;5110772;28;20259;-63
2022/08/12 04:32:21;;;;;;;2.30;2.10;;;;;;;;;;5121535;27;20291;-63
2022/08/12 04:34:50;;;;;;;1.97;1.87;;;;;;;;;;5121446;28;20242;-63
2022/08/12 04:37:18;;;;;;;2.67;1.77;;;;;;;;;;5114780;28;20208;-63
2022/08/12 04:39:47;;;;;;;3.13;1.80;;;;;;;;;;5113941;28;20198;-63
2022/08/12 04:42:15;;;;;;;5.23;2.03;;;;;;;;;;5121327;28;20203;-63
2022/08/12 04:44:43;;;;;;;6.40;2.50;;;;;;;;;;5121072;27;20254;-63
2022/08/12 04:47:13;;;;;;;3.67;1.90;;;;;;;;;;5121012;28;20241;-63
2022/08/12 04:49:41;;;;;;;2.70;2.00;;;;;;;;;;5120746;28;20220;-63
2022/08/12 04:52:11;;;;;;;5.07;2.30;;;;;;;;;;5121214;28;20237;-63
2022/08/12 04:54:39;;;;;;;2.93;1.90;;;;;;;;;;5119048;28;20259;-63
2022/08/12 04:57:08;;;;;;;3.27;1.97;;;;;;;;;;5119240;28;20235;-64
2022/08/12 04:59:37;;;;;;;2.10;1.93;;;;;;;;;;5119314;28;20209;-63
2022/08/12 05:02:15;;;;;;;7.47;1.80;;;;;;;;;;5119226;28;20246;-63
2022/08/12 05:04:49;;;;;;;2.60;1.80;;;;;;;;;;5119167;28;20232;-63
2022/08/12 05:07:19;;;;;;;3.47;2.10;;;;;;;;;;5119529;28;20716;-63
2022/08/12 05:09:47;;;;;;;4.17;2.20;;;;;;;;;;5120559;28;20661;-63
2022/08/12 05:12:30;;;;;;;3.83;2.27;;;;;;;;;;5120837;28;20603;-63
2022/08/12 05:14:59;;;;;;;3.97;2.10;;;;;;;;;;5120719;28;20225;-63
2022/08/12 05:17:27;;;;;;;2.90;2.03;;;;;;;;;;5120572;27;20257;-63
2022/08/12 05:19:56;;;;;;;2.33;2.00;;;;;;;;;;5120892;28;20207;-63
2022/08/12 05:22:26;;;;;;;2.07;1.87;;;;;;;;;;5120588;27;20207;-63
2022/08/12 05:24:54;;;;;;;2.00;1.80;;;;;;;;;;5104135;28;20253;-63
2022/08/12 05:27:22;;;;;;;4.20;2.30;;;;;;;;;;5100215;28;20242;-63
2022/08/12 05:29:50;;;;;;;2.57;2.37;;;;;;;;;;5100298;28;20239;-63
2022/08/12 05:32:36;;;;;;;2.33;2.10;;;;;;;;;;5100292;28;20205;-63
2022/08/12 05:35:05;;;;;;;2.47;2.27;;;;;;;;;;5100051;28;20307;-63
2022/08/12 05:37:35;;;;;;;2.40;2.20;;;;;;;;;;5113565;28;20284;-63
2022/08/12 05:40:04;;;;;;;5.23;2.40;;;;;;;;;;5120081;28;20209;-63
2022/08/12 05:42:37;;;;;;;6.70;2.40;;;;;;;;;;5120201;28;20200;-63
2022/08/12 05:45:06;;;;;;;4.43;2.30;;;;;;;;;;5120194;28;20229;-63
2022/08/12 05:47:34;;;;;;;3.20;2.43;;;;;;;;;;5120240;27;20284;-63
2022/08/12 05:50:20;;;;;;;3.07;2.13;;;;;;;;;;5120139;28;20261;-63
2022/08/12 05:52:50;;;;;;;6.80;3.10;;;;;;;;;;5120177;28;20232;-63
2022/08/12 05:55:21;;;;;;;3.30;2.23;;;;;;;;;;5119202;28;20261;-63
2022/08/12 05:57:55;;;;;;;2.57;2.23;;;;;;;;;;5120118;28;20238;-63
2022/08/12 06:00:24;;;;;;;3.93;2.27;;;;;;;;;;5120090;28;20202;-63
2022/08/12 06:02:55;;;;;;;3.50;2.53;;;;;;;;;;5119737;28;20670;-64
2022/08/12 06:05:23;;;;;;;3.10;2.10;;;;;;;;;;5120066;28;20221;-64
2022/08/12 06:07:55;;;;;;;6.43;2.20;;;;;;;;;;5119780;28;20251;-64
2022/08/12 06:10:29;;;;;;;5.60;2.10;;;;;;;;;;5119443;28;20597;-64
2022/08/12 06:12:59;;;;;;;6.03;2.50;;;;;;;;;;5119765;28;20284;-64
2022/08/12 06:15:27;;;;;;;7.33;2.53;;;;;;;;;;5119769;27;20254;-64
2022/08/12 06:18:04;;;;;;;2.73;2.10;;;;;;;;;;5119444;28;20201;-64
2022/08/12 06:20:42;;;;;;;4.70;2.53;;;;;;;;;;5119792;28;20307;-64
2022/08/12 06:23:14;;;;;;;10.30;2.67;;;;;;;;;;5117659;28;20263;-64
2022/08/12 06:25:42;;;;;;;8.23;2.40;;;;;;;;;;5098719;28;20567;-64
2022/08/12 06:28:16;;;;;;;4.93;2.20;;;;;;;;;;5098788;28;20723;-64
2022/08/12 06:30:45;;;;;;;5.93;2.70;;;;;;;;;;5098870;28;20212;-64
2022/08/12 06:33:33;;;;;;;3.40;2.43;;;;;;;;;;5098263;28;20232;-64
2022/08/12 06:36:23;;;;;;;4.33;2.27;;;;;;;;;;5102204;28;20289;-64
2022/08/12 06:39:01;;;;;;;3.87;2.47;;;;;;;;;;5119166;28;20289;-64
2022/08/12 06:44:34;;;;;;;10.57;2.77;;;;;;;;;;5119064;28;20231;-64
2022/08/12 06:47:02;;;;;;;4.23;2.37;;;;;;;;;;5119185;28;20228;-63
2022/08/12 06:49:35;;;;;;;4.10;2.23;;;;;;;;;;5119010;28;20210;-64
2022/08/12 06:52:03;;;;;;;8.07;2.47;;;;;;;;;;5119181;28;20241;-63
2022/08/12 06:54:34;;;;;;;5.00;2.30;;;;;;;;;;5118714;28;20265;-64
2022/08/12 06:57:02;;;;;;;4.40;2.40;;;;;;;;;;5118559;28;20200;-64
2022/08/12 06:59:50;;;;;;;5.30;2.53;;;;;;;;;;5119168;28;20214;-64
2022/08/12 07:02:19;;;;;;;3.30;2.50;;;;;;;;;;5119041;28;20264;-64
2022/08/12 07:04:47;;;;;;;6.70;2.30;;;;;;;;;;5118858;28;20272;-64
2022/08/12 07:07:15;;;;;;;4.80;2.30;;;;;;;;;;5118811;28;20261;-64
2022/08/12 07:09:44;;;;;;;5.37;2.50;;;;;;;;;;5118197;28;20621;-64
2022/08/12 07:12:32;;;;;;;4.60;2.40;;;;;;;;;;5118138;28;20291;-64
2022/08/12 07:15:00;;;;;;;4.30;2.20;;;;;;;;;;5118555;28;20224;-64
2022/08/12 07:17:34;;;;;;;4.10;2.27;;;;;;;;;;5118289;28;20200;-64
2022/08/12 07:20:04;;;;;;;4.13;2.40;;;;;;;;;;5118428;28;20680;-64
2022/08/12 07:22:33;;;;;;;4.73;2.27;;;;;;;;;;5118621;28;20261;-63
2022/08/12 07:27:53;;;;;;;3.73;2.53;;;;;;;;;;5097952;28;20626;-64
2022/08/12 07:30:21;;;;;;;4.07;2.37;;;;;;;;;;5098242;28;20211;-64
2022/08/12 07:32:50;;;;;;;7.70;2.67;;;;;;;;;;5097664;28;20238;-64
2022/08/12 07:35:19;;;;;;;6.33;2.90;;;;;;;;;;5097969;28;20211;-64
2022/08/12 07:37:49;;;;;;;4.03;2.70;;;;;;;;;;5113236;28;20682;-64
2022/08/12 07:40:18;;;;;;;12.17;3.40;;;;;;;;;;5118068;28;20214;-64
2022/08/12 07:42:47;;;;;;;6.60;3.83;;;;;;;;;;5118095;28;20247;-64
2022/08/12 07:45:15;;;;;;;4.03;2.77;;;;;;;;;;5119179;28;20208;-64
2022/08/12 07:47:43;;;;;;;6.27;2.70;;;;;;;;;;5122622;28;20234;-64
2022/08/12 07:50:12;;;;;;;5.25;2.90;;;;;;;;;;5122278;28;20636;-64
2022/08/12 07:52:41;;;;;;;5.82;2.60;;;;;;;;;;5122714;28;20203;-64
2022/08/12 07:55:11;;;;;;;6.85;2.80;;;;;;;;;;5121967;28;20233;-64
2022/08/12 07:57:49;;;;;;;9.52;3.17;;;;;;;;;;5122177;28;20610;-64
2022/08/12 08:00:17;;;;;;;8.20;2.97;;;;;;;;;;5122252;28;20250;-64
2022/08/12 08:02:45;;;;;;;3.97;3.20;;;;;;;;;;5122500;28;20233;-64
2022/08/12 08:05:14;;;;;;;4.87;2.73;;;;;;;;;;5122038;28;20567;-64
2022/08/12 08:07:42;;;;;;;3.93;2.70;;;;;;;;;;5121983;27;20712;-64
2022/08/12 08:10:12;;;;;;;5.37;2.60;;;;;;;;;;5121680;28;20210;-64
2022/08/12 08:12:56;;;;;;;4.63;2.57;;;;;;;;;;5122240;27;20216;-64
2022/08/12 08:15:27;;;;;;;7.22;2.75;;;;;;;;;;5122103;28;20207;-64
2022/08/12 08:18:16;;;;;;;5.47;2.40;;;;;;;;;;5116389;28;20197;-64
2022/08/12 08:20:54;;;;;;;5.20;2.53;;;;;;;;;;5122172;28;20230;-64
2022/08/12 08:23:22;;;;;;;4.65;2.70;;;;;;;;;;5119050;28;20225;-64
2022/08/12 08:26:13;;;;;;;6.90;3.28;;;;;;;;;;5119813;28;20310;-64
2022/08/12 08:28:42;;;;;;;4.03;2.63;;;;;;;;;;5121678;28;20277;-64
2022/08/12 08:31:13;;;;;;;6.68;3.13;;;;;;;;;;5121849;28;20269;-64
2022/08/12 08:33:41;;;;;;;8.18;2.88;;;;;;;;;;5121131;28;20683;-64
2022/08/12 08:36:29;;;;;;;4.53;2.88;;;;;;;;;;5117374;28;20688;-64
2022/08/12 08:38:57;;;;;;;4.07;2.80;;;;;;;;;;5100569;28;20237;-64
2022/08/12 08:44:30;;;;;;;4.07;2.60;;;;;;;;;;5100527;28;20230;-64
2022/08/12 08:47:02;;;;;;;5.00;2.92;;;;;;;;;;5100954;28;20291;-64
2022/08/12 08:49:30;;;;;;;6.32;3.17;;;;;;;;;;5100781;28;20245;-64
2022/08/12 08:52:01;;;;;;;6.28;3.08;;;;;;;;;;5101153;28;20292;-64
2022/08/12 08:54:32;;;;;;;4.53;3.20;;;;;;;;;;5099313;28;20282;-64
2022/08/12 08:57:00;;;;;;;3.55;3.03;;;;;;;;;;5098690;28;20248;-64
2022/08/12 08:59:28;;;;;;;7.85;3.00;;;;;;;;;;5098890;28;20233;-64
2022/08/12 09:01:56;;;;;;;3.58;2.58;;;;;;;;;;5098520;28;20233;-64
2022/08/12 09:04:26;;;;;;;5.05;2.90;;;;;;;;;;5098899;28;20225;-64
2022/08/12 09:07:16;;;;;;;4.80;3.33;;;;;;;;;;5098557;28;20718;-64
2022/08/12 09:10:05;;;;;;;3.22;3.03;;;;;;;;;;5099465;28;20629;-64
2022/08/12 09:15:56;;;;;;;3.28;2.97;;;;;;;;;;5100538;28;20205;-64
2022/08/12 09:18:26;;;;;;;3.70;2.80;;;;;;;;;;5117228;28;20201;-64
2022/08/12 09:21:02;;;;;;;3.25;2.78;;;;;;;;;;5120999;28;20208;-64
2022/08/12 09:23:33;;;;;;;5.75;2.95;;;;;;;;;;5115389;28;20586;-64
2022/08/12 09:26:21;;;;;;;3.83;2.80;;;;;;;;;;5099933;28;20213;-63
2022/08/12 09:29:09;;;;;;;5.28;4.07;;;;;;;;;;5099991;28;20590;-63
2022/08/12 09:31:40;;;;;;;2.78;2.58;;;;;;;;;;5100039;28;20688;-63
2022/08/12 09:34:28;;;;;;;4.60;2.90;;;;;;;;;;5100170;28;20239;-63
2022/08/12 09:37:04;;;;;;;2.80;2.50;;;;;;;;;;5109613;28;20199;-63
2022/08/12 09:39:49;;;;;;;5.75;3.10;;;;;;;;;;5120134;28;20663;-64
2022/08/12 09:45:48;;;;;;;7.22;2.95;;;;;;;;;;5063991;28;20293;-63
2022/08/12 09:48:36;;;;;;;5.30;2.67;;;;;;;;;;5110256;28;20224;-63
2022/08/12 09:51:11;;;;;;;3.20;2.80;;;;;;;;;;5120029;28;20232;-64
2022/08/12 09:53:50;;;;;;;4.15;2.90;;;;;;;;;;5119732;28;20231;-63
2022/08/12 09:56:39;;;;;;;3.63;2.85;;;;;;;;;;5120335;28;20209;-63
2022/08/12 09:59:27;;;;;;;5.80;2.85;;;;;;;;;;5120068;28;20296;-63
2022/08/12 10:02:15;;;;;;;5.70;3.38;;;;;;;;;;5120147;28;20205;-63
2022/08/12 10:05:03;;;;;;;9.57;4.03;;;;;;;;;;5119927;28;20359;-63
2022/08/12 10:07:31;;;;;;;3.95;2.90;;;;;;;;;;5119147;28;20668;-63
2022/08/12 10:10:10;;;;;;;3.55;3.05;;;;;;;;;;5119542;28;20291;-63
2022/08/12 10:15:59;;;;;;;4.35;2.70;;;;;;;;;;5119710;28;20204;-63
2022/08/12 10:18:32;;;;;;;4.25;3.05;;;;;;;;;;5119739;28;20192;-63
2022/08/12 10:21:05;;;;;;;3.33;2.70;;;;;;;;;;5119427;28;20204;-63
2022/08/12 10:23:34;;;;;;;5.75;2.63;;;;;;;;;;5114040;28;20712;-63
2022/08/12 10:32:16;;;;;;;4.03;2.22;;;;;;;;;;5119469;28;20212;-63
2022/08/12 10:34:48;;;;;;;4.57;3.13;;;;;;;;;;5119281;28;20230;-63
2022/08/12 10:37:24;;;;;;;4.00;3.17;;;;;;;;;;5107125;28;20201;-63
2022/08/12 10:40:12;;;;;;;3.13;2.78;;;;;;;;;;5098694;28;20216;-62
2022/08/12 10:45:34;;;;;;;4.95;2.78;;;;;;;;;;5098632;28;20216;-62
2022/08/12 10:48:05;;;;;;;5.82;3.30;;;;;;;;;;5098403;28;20594;-63
2022/08/12 10:50:54;;;;;;;3.90;3.30;;;;;;;;;;5098441;28;20237;-62
2022/08/12 10:53:30;;;;;;;3.00;2.80;;;;;;;;;;5098199;28;20660;-62
2022/08/12 10:56:13;;;;;;;8.40;2.47;;;;;;;;;;5098526;28;20208;-63
2022/08/12 10:58:42;;;;;;;4.03;2.50;;;;;;;;;;5098321;28;20197;-63
2022/08/12 11:01:15;;;;;;;4.72;2.40;;;;;;;;;;5098593;28;20297;-63
2022/08/12 11:04:04;;;;;;;3.20;2.60;;;;;;;;;;5098351;28;20228;-63
2022/08/12 11:06:52;;;;;;;3.45;2.30;;;;;;;;;;5098027;28;20208;-63
2022/08/12 11:09:41;;;;;;;2.85;2.53;;;;;;;;;;5097802;28;20237;-63
2022/08/12 11:12:29;;;;;;;3.40;2.30;;;;;;;;;;5104884;28;20212;-63
2022/08/12 11:15:22;;;;;;;2.28;2.10;;;;;;;;;;5118562;28;20214;-63
2022/08/12 11:18:10;;;;;;;3.83;2.60;;;;;;;;;;5112208;28;20576;-62
2022/08/12 11:20:46;;;;;;;4.25;2.78;;;;;;;;;;5118373;28;20672;-62
2022/08/12 11:23:15;;;;;;;4.95;2.78;;;;;;;;;;5115562;28;20232;-62
2022/08/12 11:26:03;;;;;;;2.65;2.30;;;;;;;;;;5098274;28;20602;-62
2022/08/12 11:28:33;;;;;;;3.70;2.25;;;;;;;;;;5097862;28;20229;-62
2022/08/12 11:31:07;;;;;;;2.53;2.25;;;;;;;;;;5098655;28;20273;-62
2022/08/12 11:33:38;;;;;;;4.75;2.03;;;;;;;;;;5097887;28;20278;-62
2022/08/12 11:36:26;;;;;;;6.95;2.40;;;;;;;;;;5102188;28;20201;-63
2022/08/12 11:38:55;;;;;;;2.55;2.20;;;;;;;;;;5118340;28;20207;-63
2022/08/12 11:41:24;;;;;;;2.63;2.30;;;;;;;;;;5118043;28;20208;-63
2022/08/12 11:43:58;;;;;;;3.10;2.10;;;;;;;;;;5118317;28;20224;-63
2022/08/12 11:46:48;;;;;;;2.78;2.10;;;;;;;;;;5118365;28;20200;-63
2022/08/12 11:49:19;;;;;;;3.30;2.10;;;;;;;;;;5118053;28;20220;-63
2022/08/12 11:52:00;;;;;;;2.65;1.80;;;;;;;;;;5118221;28;20654;-63
2022/08/12 11:54:28;;;;;;;2.22;1.60;;;;;;;;;;5118078;28;20224;-63
2022/08/12 11:56:57;;;;;;;2.00;1.90;;;;;;;;;;5118359;28;20232;-63
2022/08/12 11:59:27;;;;;;;2.38;1.92;;;;;;;;;;5118033;28;20249;-63
2022/08/12 12:02:16;;;;;;;1.77;1.67;;;;;;;;;;5117888;28;20219;-63
2022/08/12 12:04:47;;;;;;;2.42;1.95;;;;;;;;;;5118299;28;20277;-63
2022/08/12 12:07:21;;;;;;;6.07;2.30;;;;;;;;;;5118255;28;20201;-63
2022/08/12 12:10:10;;;;;;;3.55;2.53;;;;;;;;;;5117770;28;20235;-63
2022/08/12 12:12:38;;;;;;;1.80;1.70;;;;;;;;;;5117847;28;20247;-63
2022/08/12 12:15:16;;;;;;;5.55;2.20;;;;;;;;;;5117856;28;20268;-63
2022/08/12 12:18:05;;;;;;;3.67;1.90;;;;;;;;;;5110998;28;20735;-63
2022/08/12 12:20:39;;;;;;;3.35;2.65;;;;;;;;;;5118123;28;20196;-63
2022/08/12 12:23:07;;;;;;;3.33;3.03;;;;;;;;;;5115788;28;20263;-63
2022/08/12 12:25:55;;;;;;;2.50;2.30;;;;;;;;;;5097519;28;20206;-63
2022/08/12 12:28:34;;;;;;;3.50;2.10;;;;;;;;;;5097290;28;20209;-63
2022/08/12 12:31:06;;;;;;;2.17;2.08;;;;;;;;;;5097735;28;20210;-63
2022/08/12 12:33:55;;;;;;;1.70;1.60;;;;;;;;;;5100561;28;20250;-63
2022/08/12 12:36:25;;;;;;;1.98;1.80;;;;;;;;;;5113254;28;20197;-63
2022/08/12 12:38:57;;;;;;;2.08;1.83;;;;;;;;;;5101027;28;20205;-63
2022/08/12 12:41:27;;;;;;;2.20;2.00;;;;;;;;;;5100712;28;20209;-63
2022/08/12 12:44:14;;;;;;;2.20;2.00;;;;;;;;;;5100951;28;20225;-63
2022/08/12 12:46:56;;;;;;;1.88;1.77;;;;;;;;;;5100911;28;20621;-63
2022/08/12 12:49:26;;;;;;;4.55;1.92;;;;;;;;;;5100617;28;20232;-63
2022/08/12 12:51:54;;;;;;;2.05;1.95;;;;;;;;;;5101072;28;20217;-63
2022/08/12 12:54:51;;;;;;;3.40;1.83;;;;;;;;;;5100221;28;20233;-63
2022/08/12 12:57:19;;;;;;;2.30;2.05;;;;;;;;;;5100453;28;20292;-63
2022/08/12 13:00:15;;;;;;;3.40;2.40;;;;;;;;;;5100891;28;20299;-63
2022/08/12 13:02:49;;;;;;;4.53;2.08;;;;;;;;;;5100870;28;20233;-63
2022/08/12 13:05:24;;;;;;;2.40;2.28;;;;;;;;;;5098832;28;20261;-63
2022/08/12 13:07:55;;;;;;;2.42;1.92;;;;;;;;;;5098688;28;20206;-63
2022/08/12 13:10:28;;;;;;;2.00;1.90;;;;;;;;;;5098348;28;20286;-63
2022/08/12 13:13:04;;;;;;;2.45;2.00;;;;;;;;;;5098617;28;20205;-63
2022/08/12 13:15:52;;;;;;;4.72;2.00;;;;;;;;;;5098277;28;20205;-64
2022/08/12 13:18:32;;;;;;;1.80;1.70;;;;;;;;;;5101623;28;20223;-63
2022/08/12 13:21:01;;;;;;;2.83;1.90;;;;;;;;;;5120692;27;20670;-63
2022/08/12 13:23:30;;;;;;;2.10;2.00;;;;;;;;;;5115828;28;20264;-63
2022/08/12 13:26:04;;;;;;;6.10;2.05;;;;;;;;;;5100437;28;20211;-63
2022/08/12 13:28:41;;;;;;;4.22;2.20;;;;;;;;;;5100423;28;20215;-63
2022/08/12 13:31:10;;;;;;;2.35;2.13;;;;;;;;;;5100086;28;20264;-63
2022/08/12 13:33:38;;;;;;;2.55;2.35;;;;;;;;;;5100274;28;20308;-63
2022/08/12 13:36:29;;;;;;;2.22;2.10;;;;;;;;;;5104893;28;20292;-63
2022/08/12 13:38:57;;;;;;;3.90;1.80;;;;;;;;;;5120423;28;20214;-63
2022/08/12 13:41:35;;;;;;;3.38;2.10;;;;;;;;;;5120455;28;20239;-63
2022/08/12 13:44:04;;;;;;;4.13;1.88;;;;;;;;;;5119135;28;20220;-63
2022/08/12 13:46:39;;;;;;;4.07;1.90;;;;;;;;;;5120166;28;20208;-63
2022/08/12 13:49:10;;;;;;;3.85;1.88;;;;;;;;;;5120417;28;20214;-63
2022/08/12 13:51:52;;;;;;;4.03;2.40;;;;;;;;;;5119993;28;20311;-63
2022/08/12 13:54:20;;;;;;;2.05;1.90;;;;;;;;;;5119662;28;20664;-63
2022/08/12 13:56:49;;;;;;;3.20;2.05;;;;;;;;;;5120206;28;20208;-63
2022/08/12 13:59:20;;;;;;;2.10;2.00;;;;;;;;;;5120248;28;20204;-63
2022/08/12 14:01:53;;;;;;;1.90;1.80;;;;;;;;;;5120089;28;20212;-63
2022/08/12 14:04:23;;;;;;;5.85;2.65;;;;;;;;;;5119814;28;20278;-63
2022/08/12 14:06:55;;;;;;;2.08;1.88;;;;;;;;;;5120046;28;20215;-63
2022/08/12 14:09:23;;;;;;;6.47;2.47;;;;;;;;;;5119513;28;20228;-63
2022/08/12 14:11:56;;;;;;;4.63;2.28;;;;;;;;;;5119669;28;20588;-63
2022/08/12 14:14:26;;;;;;;2.05;1.95;;;;;;;;;;5119881;28;20225;-63
2022/08/12 14:17:01;;;;;;;3.35;2.13;;;;;;;;;;5119467;28;20216;-63
2022/08/12 14:19:32;;;;;;;4.30;2.20;;;;;;;;;;5119801;28;20275;-63
2022/08/12 14:22:09;;;;;;;2.50;2.00;;;;;;;;;;5119777;28;20560;-63
2022/08/12 14:24:37;;;;;;;2.28;2.08;;;;;;;;;;5105074;28;20643;-63
2022/08/12 14:27:07;;;;;;;4.40;2.17;;;;;;;;;;5098978;28;20248;-63
2022/08/12 14:29:41;;;;;;;5.10;2.03;;;;;;;;;;5098818;28;20548;-63
2022/08/12 14:32:33;;;;;;;2.53;2.13;;;;;;;;;;5099229;28;20289;-63
2022/08/12 14:35:07;;;;;;;2.67;1.95;;;;;;;;;;5099110;28;20228;-63
2022/08/12 14:37:38;;;;;;;2.75;2.22;;;;;;;;;;5112926;28;20284;-63
2022/08/12 14:40:25;;;;;;;3.00;2.55;;;;;;;;;;5119012;28;20232;-63
2022/08/12 14:42:55;;;;;;;3.85;2.35;;;;;;;;;;5119138;28;20204;-63
2022/08/12 14:45:24;;;;;;;2.72;2.22;;;;;;;;;;5119235;28;20287;-63
2022/08/12 14:48:13;;;;;;;2.05;1.70;;;;;;;;;;5119001;28;21350;-63
2022/08/12 14:50:42;;;;;;;4.00;1.80;;;;;;;;;;5118662;28;20285;-63
2022/08/12 14:53:32;;;;;;;2.20;2.00;;;;;;;;;;5118612;28;20808;-63
2022/08/12 14:56:24;;;;;;;2.60;2.40;;;;;;;;;;5118626;28;20230;-62
2022/08/12 15:02:19;;;;;;;5.93;2.45;;;;;;;;;;5118755;28;20563;-62
2022/08/12 15:04:51;;;;;;;1.77;1.67;;;;;;;;;;5118720;27;20303;-63
2022/08/12 15:07:19;;;;;;;2.35;2.13;;;;;;;;;;5118774;28;20235;-63
2022/08/12 15:10:09;;;;;;;1.60;1.60;;;;;;;;;;5118616;28;20271;-63
2022/08/12 15:12:39;;;;;;;2.08;1.92;;;;;;;;;;5118804;28;20208;-63
2022/08/12 15:15:08;;;;;;;4.15;1.80;;;;;;;;;;5118644;28;20232;-63
2022/08/12 15:17:38;;;;;;;2.25;2.05;;;;;;;;;;5118370;28;20620;-63
2022/08/12 15:20:07;;;;;;;2.22;2.08;;;;;;;;;;5118434;28;20204;-63
2022/08/12 15:22:55;;;;;;;3.53;1.75;;;;;;;;;;5118405;28;20215;-63
2022/08/12 15:25:26;;;;;;;3.38;2.33;;;;;;;;;;5105362;28;20208;-63
2022/08/12 15:27:55;;;;;;;4.40;1.90;;;;;;;;;;5118608;28;20204;-63
2022/08/12 15:30:43;;;;;;;5.25;2.03;;;;;;;;;;5118255;28;20315;-63
2022/08/12 15:33:11;;;;;;;2.28;2.00;;;;;;;;;;5118208;28;20591;-63
2022/08/12 15:35:47;;;;;;;2.95;1.98;;;;;;;;;;5118239;28;20212;-63
2022/08/12 15:38:20;;;;;;;3.60;1.65;;;;;;;;;;5097893;28;20236;-63
2022/08/12 15:40:54;;;;;;;2.03;1.88;;;;;;;;;;5097667;28;20201;-63
2022/08/12 15:43:23;;;;;;;2.30;1.90;;;;;;;;;;5097728;28;20664;-63
2022/08/12 15:46:11;;;;;;;2.88;1.75;;;;;;;;;;5097638;28;20295;-63
2022/08/12 15:48:43;;;;;;;2.10;2.00;;;;;;;;;;5098200;28;20272;-63
2022/08/12 15:51:27;;;;;;;2.03;1.92;;;;;;;;;;5097490;28;20324;-63
2022/08/12 15:54:15;;;;;;;1.80;1.70;;;;;;;;;;5097616;28;20239;-63
2022/08/12 15:57:04;;;;;;;2.30;1.98;;;;;;;;;;5097611;28;20574;-63
2022/08/12 15:59:34;;;;;;;2.58;2.10;;;;;;;;;;5104966;28;20257;-63
2022/08/12 16:02:22;;;;;;;2.15;2.03;;;;;;;;;;5117933;28;20284;-63
2022/08/12 16:04:54;;;;;;;2.38;2.17;;;;;;;;;;5117813;28;20592;-63
2022/08/12 16:07:23;;;;;;;3.00;2.08;;;;;;;;;;5120791;28;20239;-63
2022/08/12 16:09:58;;;;;;;3.15;2.00;;;;;;;;;;5122113;27;20203;-63
2022/08/12 16:12:38;;;;;;;2.00;1.90;;;;;;;;;;5121835;28;20264;-63
2022/08/12 16:15:07;;;;;;;2.28;2.08;;;;;;;;;;5121760;28;20703;-63
2022/08/12 16:17:35;;;;;;;2.50;2.20;;;;;;;;;;5122215;28;20201;-63
2022/08/12 16:20:25;;;;;;;3.92;2.22;;;;;;;;;;5122105;28;20223;-63
2022/08/12 16:23:02;;;;;;;5.00;2.38;;;;;;;;;;5121533;28;20204;-63
2022/08/12 16:25:31;;;;;;;2.22;2.03;;;;;;;;;;5101481;28;20239;-63
2022/08/12 16:28:21;;;;;;;2.13;1.92;;;;;;;;;;5101361;28;20300;-63
2022/08/12 16:30:55;;;;;;;2.47;2.28;;;;;;;;;;5101394;28;20288;-63
2022/08/12 16:33:31;;;;;;;4.18;2.65;;;;;;;;;;5101296;28;20260;-63
2022/08/12 16:36:04;;;;;;;3.15;2.17;;;;;;;;;;5101967;28;20610;-63
2022/08/12 16:38:37;;;;;;;3.05;1.98;;;;;;;;;;5121259;28;20675;-63
2022/08/12 16:41:06;;;;;;;2.20;1.92;;;;;;;;;;5118478;27;20192;-63
2022/08/12 16:43:36;;;;;;;6.00;2.50;;;;;;;;;;5120304;28;20285;-63
2022/08/12 16:46:06;;;;;;;2.83;2.08;;;;;;;;;;5121178;28;20717;-63
2022/08/12 16:48:54;;;;;;;3.65;1.70;;;;;;;;;;5120474;28;20205;-64
2022/08/12 16:51:25;;;;;;;2.30;1.88;;;;;;;;;;5118420;27;20239;-63
2022/08/12 16:53:53;;;;;;;3.67;2.30;;;;;;;;;;5121097;28;20262;-63
2022/08/12 16:56:22;;;;;;;2.40;2.20;;;;;;;;;;5121043;28;20211;-63
2022/08/12 16:58:58;;;;;;;2.00;1.90;;;;;;;;;;5120849;28;20254;-63
2022/08/12 17:01:28;;;;;;;2.28;2.10;;;;;;;;;;5120667;28;20224;-63
2022/08/12 17:04:01;;;;;;;2.22;2.03;;;;;;;;;;5120678;28;20220;-63
2022/08/12 17:06:29;;;;;;;2.22;2.03;;;;;;;;;;5120801;28;20220;-63
2022/08/12 17:09:01;;;;;;;2.92;1.63;;;;;;;;;;5120758;28;20229;-63
2022/08/12 17:11:30;;;;;;;3.88;1.80;;;;;;;;;;5120809;28;20217;-63
2022/08/12 17:14:00;;;;;;;3.67;1.98;;;;;;;;;;5120918;28;20246;-63
2022/08/12 17:16:28;;;;;;;2.33;1.60;;;;;;;;;;5113528;28;20205;-63